Time;durP1;ratioP1;P1;durP2;ratioP2;P2;SDS_P1;SDS_P2;PMS_P1;PMS_P2;Temp;Humidity;BMP_temperature;BMP_pressure;BME280_temperature;BME280_humidity;BME280_pressure;Samples;Min_cycle;Max_cycle;Signal;HPM_P1;HPM_P2
2021/06/27 00:01:20;;;;;;;4.18;2.80;;;18.90;70.60;;;21.46;59.75;101835.41;5009713;28;96923;-67
2021/06/27 00:04:13;;;;;;;2.33;2.10;;;18.90;70.70;;;21.42;59.45;101826.34;5010796;28;97891;-68
2021/06/27 00:06:43;;;;;;;;;;;18.90;70.70;;;21.39;59.43;101842.59;5010422;28;96866;-67
2021/06/27 00:09:12;;;;;;;5.88;3.58;;;18.80;70.80;;;21.40;59.60;101825.91;5009401;28;96917;-68
2021/06/27 00:11:42;;;;;;;1.92;1.80;;;18.80;70.70;;;21.40;59.35;101830.53;5004794;28;98145;-68
2021/06/27 00:14:11;;;;;;;7.45;3.95;;;18.80;70.80;;;21.41;59.33;101830.22;5006981;28;97071;-67
2021/06/27 00:16:41;;;;;;;9.77;2.92;;;18.70;70.70;;;21.35;59.69;101825.34;5003644;28;96804;-68
2021/06/27 00:19:10;;;;;;;8.27;4.50;;;18.70;70.80;;;21.35;60.11;101833.53;5004883;28;97278;-68
2021/06/27 00:21:39;;;;;;;3.47;2.63;;;18.70;70.80;;;21.33;59.54;101833.88;5006912;28;96871;-68
2021/06/27 00:24:09;;;;;;;5.43;3.75;;;18.70;70.90;;;21.31;59.44;101821.72;5009691;28;97050;-67
2021/06/27 00:26:39;;;;;;;5.40;3.67;;;18.60;70.90;;;21.25;59.65;101823.13;5010988;28;96974;-67
2021/06/27 00:29:07;;;;;;;2.85;1.85;;;18.60;71.00;;;21.22;59.70;101832.78;5009761;28;97466;-68
2021/06/27 00:31:36;;;;;;;5.95;4.20;;;18.60;71.00;;;21.21;59.27;101828.47;5010482;28;97894;-68
2021/06/27 00:34:05;;;;;;;9.10;2.85;;;18.50;71.00;;;21.18;58.87;101831.88;5026405;27;97817;-67
2021/06/27 00:36:34;;;;;;;10.40;4.32;;;18.50;71.00;;;21.12;59.15;101825.09;5009150;28;96731;-67
2021/06/27 00:39:05;;;;;;;5.25;2.85;;;18.50;71.10;;;21.07;60.25;101825.34;5008000;28;96888;-67
2021/06/27 00:41:38;;;;;;;3.42;1.73;;;18.40;71.00;;;21.00;60.25;101827.84;5005414;28;98094;-67
2021/06/27 00:44:07;;;;;;;10.65;2.60;;;18.40;71.10;;;20.99;59.46;101831.69;5006650;28;96792;-67
2021/06/27 00:46:35;;;;;;;5.78;1.55;;;18.40;71.10;;;21.01;59.86;101837.59;5006305;28;96807;-67
2021/06/27 00:49:04;;;;;;;1.63;1.52;;;18.40;71.10;;;20.98;59.83;101838.28;5006452;28;96938;-67
2021/06/27 00:51:33;;;;;;;3.78;3.20;;;18.30;71.10;;;20.98;60.34;101841.00;5006787;28;96868;-67
2021/06/27 00:54:03;;;;;;;3.63;3.33;;;18.30;71.10;;;20.94;58.83;101837.41;5027611;27;97474;-67
2021/06/27 00:56:32;;;;;;;3.35;2.70;;;18.30;71.10;;;20.92;59.95;101836.16;5004080;28;97017;-67
2021/06/27 00:59:03;;;;;;;6.95;3.83;;;18.20;71.10;;;20.87;59.76;101831.75;5001943;28;97896;-67
2021/06/27 01:01:32;;;;;;;8.52;2.63;;;18.20;71.20;;;20.86;59.19;101835.59;5039737;27;97566;-67
2021/06/27 01:04:01;;;;;;;5.10;2.90;;;18.20;71.20;;;20.85;59.29;101834.00;5010691;28;99804;-67
2021/06/27 01:06:32;;;;;;;5.40;3.03;;;18.20;71.20;;;20.81;60.15;101835.81;5010612;28;96790;-67
2021/06/27 01:09:01;;;;;;;3.92;2.47;;;18.10;71.20;;;20.82;59.40;101825.69;5008598;28;97040;-67
2021/06/27 01:11:33;;;;;;;3.10;2.25;;;18.10;71.20;;;20.80;59.05;101823.31;5008146;28;97875;-67
2021/06/27 01:14:04;;;;;;;9.38;5.05;;;18.10;71.30;;;20.85;59.83;101816.84;5009682;28;97938;-67
2021/06/27 01:16:33;;;;;;;6.53;4.18;;;18.10;71.30;;;20.74;59.18;101830.16;5007622;28;97161;-67
2021/06/27 01:19:02;;;;;;;2.10;1.90;;;18.10;71.30;;;20.71;59.24;101825.38;5007143;28;98983;-67
2021/06/27 01:21:35;;;;;;;3.88;2.70;;;18.00;71.20;;;20.63;59.93;101833.69;5009272;28;98779;-67
2021/06/27 01:24:05;;;;;;;7.60;3.70;;;18.00;71.30;;;20.63;59.59;101829.00;5008143;28;97658;-69
2021/06/27 01:26:34;;;;;;;5.07;3.83;;;18.00;71.30;;;20.70;59.33;101831.16;5009266;28;96793;-69
2021/06/27 01:29:03;;;;;;;6.97;3.15;;;17.90;71.30;;;20.65;59.83;101815.84;5010007;28;97367;-69
2021/06/27 01:31:33;;;;;;;6.85;4.03;;;17.90;71.60;;;20.68;59.37;101822.56;5007378;28;97378;-69
2021/06/27 01:34:03;;;;;;;13.00;4.22;;;17.90;71.30;;;20.63;60.11;101825.50;5011454;28;97686;-69
2021/06/27 01:36:34;;;;;;;3.97;2.47;;;17.80;71.40;;;20.59;59.83;101827.34;5010611;28;96758;-69
2021/06/27 01:39:03;;;;;;;5.07;3.88;;;17.80;71.40;;;20.57;59.05;101829.59;5028618;27;96903;-69
2021/06/27 01:41:32;;;;;;;3.63;2.50;;;17.80;71.40;;;20.56;59.26;101822.53;5008804;28;98948;-69
2021/06/27 01:44:01;;;;;;;1.95;1.60;;;17.80;71.50;;;20.51;59.01;101820.06;5007048;28;97753;-69
2021/06/27 01:46:31;;;;;;;3.20;1.80;;;17.70;71.50;;;20.38;59.36;101820.41;5027087;27;97205;-69
2021/06/27 01:49:00;;;;;;;21.15;4.45;;;17.70;71.50;;;20.38;59.42;101821.22;5006155;28;96862;-69
2021/06/27 01:51:30;;;;;;;3.80;2.28;;;17.70;71.50;;;20.31;59.66;101825.63;5012763;28;97002;-69
2021/06/27 01:54:00;;;;;;;7.07;2.35;;;17.70;71.60;;;20.27;60.28;101824.72;5007094;28;98108;-69
2021/06/27 01:56:30;;;;;;;3.75;2.70;;;17.60;71.50;;;20.22;60.66;101817.56;5008907;28;96824;-69
2021/06/27 01:59:02;;;;;;;8.30;3.08;;;17.60;71.50;;;20.33;60.20;101815.19;5010247;28;96809;-69
2021/06/27 02:01:36;;;;;;;4.17;3.77;;;17.60;71.60;;;20.24;60.37;101820.75;5006425;28;98983;-69
2021/06/27 02:04:06;;;;;;;;;;;17.60;71.60;;;20.19;59.50;101817.47;5008062;28;97714;-69
2021/06/27 02:06:39;;;;;;;4.93;3.75;;;17.60;72.40;;;20.20;59.96;101819.84;5005411;28;96868;-69
2021/06/27 02:09:13;;;;;;;3.05;2.28;;;17.50;71.60;;;20.19;60.05;101829.13;5007910;28;97708;-70
2021/06/27 02:11:42;;;;;;;7.95;2.63;;;17.50;71.60;;;20.19;60.46;101828.34;5010564;28;97956;-70
2021/06/27 02:14:11;;;;;;;8.52;5.15;;;17.50;71.60;;;20.14;60.00;101820.41;5005676;28;97180;-70
2021/06/27 02:16:40;;;;;;;3.60;2.03;;;17.40;71.60;;;20.11;60.15;101815.63;5007514;28;96795;-70
2021/06/27 02:19:09;;;;;;;8.95;3.47;;;17.50;71.70;;;20.13;59.70;101808.72;5010428;28;97070;-69
2021/06/27 02:21:38;;;;;;;5.80;3.65;;;17.40;71.70;;;20.11;60.41;101808.28;5005492;28;98123;-70
2021/06/27 02:24:09;;;;;;;10.90;3.00;;;17.40;71.70;;;20.06;60.14;101807.69;5004511;28;98816;-70
2021/06/27 02:26:39;;;;;;;6.75;4.88;;;17.40;71.80;;;20.00;60.44;101811.75;5011567;28;98456;-69
2021/06/27 02:29:08;;;;;;;4.22;2.55;;;17.30;71.70;;;20.07;60.29;101820.16;5026756;27;97010;-69
2021/06/27 02:31:37;;;;;;;2.70;1.77;;;17.30;71.80;;;20.06;59.80;101807.69;5005816;28;97966;-70
2021/06/27 02:34:06;;;;;;;8.02;2.75;;;17.30;71.80;;;20.01;60.16;101811.44;5007020;28;98441;-70
2021/06/27 02:36:35;;;;;;;10.55;2.70;;;17.30;71.80;;;19.92;60.49;101809.94;5009404;28;96809;-70
2021/06/27 02:39:05;;;;;;;2.22;1.50;;;17.30;71.80;;;19.89;60.02;101808.66;5008677;28;96973;-70
2021/06/27 02:41:36;;;;;;;3.15;2.65;;;17.30;71.90;;;19.85;60.04;101806.97;5025060;27;97361;-69
2021/06/27 02:44:07;;;;;;;3.97;3.33;;;17.30;71.90;;;19.87;60.45;101804.72;5027424;27;97684;-70
2021/06/27 02:46:37;;;;;;;4.22;2.85;;;17.30;71.90;;;19.87;60.15;101799.25;5008910;28;96738;-70
2021/06/27 02:49:06;;;;;;;6.72;3.72;;;17.20;71.90;;;19.83;60.24;101799.13;5025829;27;97735;-70
2021/06/27 02:51:35;;;;;;;5.15;3.75;;;17.20;71.90;;;19.86;60.69;101795.75;5009915;28;97863;-70
2021/06/27 02:54:05;;;;;;;4.28;3.22;;;17.20;71.90;;;19.90;60.60;101798.59;5025055;27;97764;-70
2021/06/27 02:56:35;;;;;;;2.03;1.88;;;17.20;71.90;;;19.92;59.75;101794.38;5009908;28;97085;-70
2021/06/27 02:59:04;;;;;;;6.45;3.15;;;17.20;71.90;;;19.88;59.51;101801.63;5001087;28;96847;-70
2021/06/27 03:01:33;;;;;;;4.15;2.55;;;17.10;71.90;;;19.73;60.63;101796.03;5005759;28;96900;-70
2021/06/27 03:04:03;;;;;;;7.88;2.40;;;17.10;71.90;;;19.66;60.83;101795.81;5005074;28;97317;-70
2021/06/27 03:06:32;;;;;;;10.00;3.40;;;17.10;71.90;;;19.60;60.81;101800.66;5008636;28;96791;-70
2021/06/27 03:09:00;;;;;;;7.45;4.03;;;17.00;72.00;;;19.60;61.15;101802.59;5004986;28;97371;-70
2021/06/27 03:11:34;;;;;;;9.77;3.03;;;17.00;72.00;;;19.59;60.73;101793.63;5002597;28;96926;-70
2021/06/27 03:14:04;;;;;;;9.57;5.28;;;17.00;72.00;;;19.55;60.70;101787.28;5006226;28;97665;-70
2021/06/27 03:16:35;;;;;;;8.93;3.65;;;17.00;72.00;;;19.55;60.97;101787.28;5006901;28;96755;-70
2021/06/27 03:19:05;;;;;;;9.15;2.10;;;17.00;72.00;;;19.55;60.45;101786.50;5004211;28;96995;-70
2021/06/27 03:21:34;;;;;;;11.60;3.58;;;16.90;72.10;;;19.56;60.39;101788.09;5003249;28;98218;-70
2021/06/27 03:24:03;;;;;;;9.38;4.05;;;16.90;72.00;;;19.57;60.89;101785.03;5007171;28;97816;-70
2021/06/27 03:26:32;;;;;;;2.80;2.28;;;16.90;72.00;;;19.57;60.84;101793.19;5008314;28;97093;-69
2021/06/27 03:29:04;;;;;;;6.50;3.67;;;16.90;72.10;;;19.60;60.01;101780.84;5005601;28;96705;-69
2021/06/27 03:31:32;;;;;;;7.53;3.85;;;16.90;72.00;;;19.56;60.70;101779.94;5006350;28;97178;-69
2021/06/27 03:34:03;;;;;;;9.95;4.22;;;16.90;72.00;;;19.55;60.03;101783.78;5007791;28;97911;-69
2021/06/27 03:36:32;;;;;;;4.72;3.60;;;16.90;72.00;;;19.54;60.59;101785.69;5006333;28;96921;-69
2021/06/27 03:39:05;;;;;;;4.22;2.17;;;16.90;72.00;;;19.60;60.21;101791.72;5003232;28;96719;-69
2021/06/27 03:41:38;;;;;;;6.70;3.08;;;16.90;72.00;;;19.65;60.43;101789.56;5007260;28;96909;-69
2021/06/27 03:44:09;;;;;;;;;;;16.90;72.00;;;19.68;60.25;101788.09;5006092;28;97719;-69
2021/06/27 03:46:38;;;;;;;1.85;1.70;;;16.90;72.00;;;19.77;60.16;101783.34;5004399;28;96899;-69
2021/06/27 03:49:07;;;;;;;5.05;3.85;;;17.00;71.90;;;19.82;59.67;101778.50;5004590;28;97487;-69
2021/06/27 03:51:35;;;;;;;4.75;3.70;;;17.00;71.90;;;19.87;59.72;101783.72;5006830;28;99075;-69
2021/06/27 03:54:05;;;;;;;2.42;2.17;;;17.00;72.10;;;19.89;59.98;101780.69;5002716;28;98377;-69
2021/06/27 03:56:34;;;;;;;10.52;3.90;;;17.10;71.80;;;19.96;58.90;101783.63;5000759;28;96902;-69
2021/06/27 03:59:04;;;;;;;4.43;1.95;;;17.10;71.80;;;20.03;59.29;101776.53;5001292;28;96810;-69
2021/06/27 04:01:35;;;;;;;16.42;3.17;;;17.10;71.70;;;20.04;59.36;101782.75;5003707;28;98006;-69
2021/06/27 04:04:04;;;;;;;9.63;3.28;;;17.10;71.60;;;20.15;59.41;101773.03;5006562;28;97634;-69
2021/06/27 04:06:33;;;;;;;5.95;3.58;;;17.20;71.60;;;20.20;59.43;101764.63;5002681;28;96780;-69
2021/06/27 04:09:03;;;;;;;5.80;2.75;;;17.20;71.50;;;20.28;58.93;101758.25;5005126;28;96887;-69
2021/06/27 04:11:32;;;;;;;9.55;3.33;;;17.30;71.50;;;20.29;58.85;101757.94;5009503;28;97536;-70
2021/06/27 04:14:01;;;;;;;5.05;2.58;;;17.40;71.40;;;20.30;57.82;101754.06;5009555;28;98085;-69
2021/06/27 04:16:32;;;;;;;4.50;3.70;;;17.40;71.30;;;20.35;58.42;101758.47;5008427;28;96855;-69
2021/06/27 04:19:03;;;;;;;3.47;2.85;;;17.40;71.30;;;20.43;58.27;101750.19;5007573;28;96789;-69
2021/06/27 04:21:32;;;;;;;4.70;3.58;;;17.50;71.20;;;20.45;58.65;101752.59;5009398;28;100575;-70
2021/06/27 04:24:01;;;;;;;5.55;3.95;;;17.50;71.10;;;20.53;58.26;101754.38;5011362;28;97649;-69
2021/06/27 04:26:30;;;;;;;3.28;1.60;;;17.50;71.00;;;20.58;57.83;101747.56;5010407;28;97460;-69
2021/06/27 04:29:00;;;;;;;9.05;3.78;;;17.60;71.00;;;20.68;58.59;101749.78;5007649;28;96986;-70
2021/06/27 04:31:32;;;;;;;3.55;2.33;;;17.70;71.00;;;20.69;58.54;101745.94;5013643;28;97390;-69
2021/06/27 04:34:03;;;;;;;6.55;3.72;;;17.70;70.90;;;20.78;58.40;101732.97;5004433;28;97269;-69
2021/06/27 04:36:32;;;;;;;28.50;3.55;;;17.80;70.90;;;20.83;57.96;101740.94;5008886;28;97811;-70
2021/06/27 04:39:06;;;;;;;6.03;2.92;;;17.80;70.80;;;20.92;58.38;101729.91;5009800;28;96943;-69
2021/06/27 04:41:35;;;;;;;8.65;3.55;;;17.90;70.70;;;21.01;57.80;101725.09;5007020;28;97152;-69
2021/06/27 04:44:05;;;;;;;2.15;1.95;;;18.00;70.70;;;21.07;57.78;101723.69;5007959;28;97695;-70
2021/06/27 04:46:34;;;;;;;16.38;5.78;;;18.10;70.60;;;21.17;57.78;101718.53;5003189;28;96797;-70
2021/06/27 04:49:04;;;;;;;19.88;5.45;;;18.10;70.50;;;21.24;57.64;101726.91;5009296;28;96772;-69
2021/06/27 04:51:33;;;;;;;3.40;2.78;;;18.20;70.50;;;21.27;57.47;101720.75;5008290;28;97973;-69
2021/06/27 04:54:03;;;;;;;23.50;4.35;;;18.20;70.40;;;21.38;57.16;101721.03;5006502;28;96724;-69
2021/06/27 04:56:32;;;;;;;12.20;4.75;;;18.30;70.30;;;21.49;57.74;101725.63;5007830;28;97213;-69
2021/06/27 04:59:01;;;;;;;8.13;2.95;;;18.40;70.40;;;21.61;57.11;101733.75;5008721;28;96806;-69
2021/06/27 05:01:31;;;;;;;10.25;2.83;;;18.50;70.30;;;21.72;56.54;101725.84;5009013;28;97993;-70
2021/06/27 05:03:59;;;;;;;1.10;1.05;;;18.50;70.10;;;21.82;56.53;101723.38;5006269;28;99204;-69
2021/06/27 05:06:32;;;;;;;12.65;6.00;;;18.60;70.10;;;21.92;56.27;101722.84;5009565;28;97080;-69
2021/06/27 05:09:01;;;;;;;4.53;2.70;;;18.70;70.00;;;22.02;56.87;101721.50;5011446;28;96719;-70
2021/06/27 05:11:33;;;;;;;12.98;4.88;;;18.80;69.90;;;22.05;56.78;101716.13;5009077;28;97816;-70
2021/06/27 05:14:02;;;;;;;5.93;2.97;;;18.90;69.80;;;22.15;57.05;101729.22;5006363;28;97811;-70
2021/06/27 05:16:31;;;;;;;2.47;2.20;;;19.00;69.80;;;22.32;56.29;101732.38;5008229;28;96830;-69
2021/06/27 05:19:00;;;;;;;6.13;2.53;;;19.10;69.70;;;22.46;56.07;101735.47;5010065;28;96846;-69
2021/06/27 05:21:32;;;;;;;6.88;4.93;;;19.10;69.60;;;22.54;56.11;101737.19;5007301;28;97150;-70
2021/06/27 05:24:00;;;;;;;6.38;3.22;;;19.20;69.50;;;22.62;56.43;101729.94;5003531;28;97267;-70
2021/06/27 05:26:31;;;;;;;7.80;4.45;;;19.40;69.40;;;22.71;56.09;101727.78;5007873;28;96916;-69
2021/06/27 05:29:00;;;;;;;7.55;3.80;;;19.50;69.40;;;22.81;56.21;101722.53;5008664;28;96921;-70
2021/06/27 05:31:33;;;;;;;2.55;2.33;;;19.60;69.30;;;23.20;55.65;101715.13;5004897;28;96941;-70
2021/06/27 05:34:01;;;;;;;7.88;3.67;;;20.40;69.00;;;24.15;53.64;101719.13;5008410;28;96928;-70
2021/06/27 05:36:37;;;;;;;8.43;4.10;;;21.20;66.50;;;24.47;53.56;101717.63;5010557;28;96914;-70
2021/06/27 05:39:07;;;;;;;2.95;2.55;;;21.60;66.30;;;25.24;52.81;101710.41;5005555;28;96960;-70
2021/06/27 05:41:37;;;;;;;6.78;3.38;;;21.90;66.20;;;25.58;52.64;101708.38;5005695;28;98914;-70
2021/06/27 05:44:08;;;;;;;4.28;3.75;;;22.80;65.90;;;27.04;50.59;101712.03;5002817;28;97380;-70
2021/06/27 05:46:37;;;;;;;5.50;2.78;;;23.20;65.20;;;28.05;48.90;101709.41;5004680;28;96813;-70
2021/06/27 05:49:06;;;;;;;3.33;3.03;;;23.50;65.20;;;28.63;48.76;101704.16;5005540;28;97037;-70
2021/06/27 05:51:37;;;;;;;10.18;3.20;;;24.60;64.60;;;30.99;44.61;101695.03;5007283;28;97925;-70
2021/06/27 05:54:06;;;;;;;8.13;4.78;;;26.50;62.30;;;32.25;43.02;101686.63;5008250;28;99203;-71
2021/06/27 05:56:35;;;;;;;6.45;4.30;;;27.70;60.20;;;32.91;43.16;101707.47;5008781;28;97213;-70
2021/06/27 05:59:06;;;;;;;5.15;2.63;;;28.30;59.90;;;32.39;45.35;101703.78;5039006;27;97270;-71
2021/06/27 06:01:35;;;;;;;5.63;3.58;;;29.40;59.50;;;32.65;46.51;101705.63;5008084;28;98942;-71
2021/06/27 06:04:05;;;;;;;5.15;4.28;;;30.40;58.80;;;33.02;47.30;101710.78;5009521;28;97312;-71
2021/06/27 06:06:35;;;;;;;13.52;4.75;;;31.40;58.00;;;34.58;45.49;101686.53;5005080;28;97153;-71
2021/06/27 06:09:05;;;;;;;18.52;3.78;;;32.50;57.30;;;37.09;41.46;101684.66;5009227;28;96736;-71
2021/06/27 06:11:33;;;;;;;9.63;4.57;;;33.60;56.60;;;39.04;39.08;101673.19;5001694;28;97857;-71
2021/06/27 06:14:03;;;;;;;12.10;5.13;;;34.70;55.90;;;40.34;37.96;101665.25;5005664;28;96908;-71
2021/06/27 06:16:32;;;;;;;7.80;3.80;;;35.70;55.60;;;40.74;38.01;101673.91;5019281;28;97009;-71
2021/06/27 06:19:01;;;;;;;8.15;3.88;;;36.10;55.50;;;40.53;39.12;101669.44;5011108;28;97337;-71
2021/06/27 06:21:32;;;;;;;13.07;4.70;;;36.20;56.00;;;40.93;39.37;101674.47;5008227;28;97261;-71
2021/06/27 06:24:03;;;;;;;6.13;4.43;;;36.40;56.20;;;41.59;38.36;101664.97;5010124;28;97726;-70
2021/06/27 06:26:33;;;;;;;9.27;4.00;;;36.70;56.10;;;42.11;37.69;101653.31;5009779;28;98614;-70
2021/06/27 06:29:04;;;;;;;8.93;4.65;;;37.10;56.00;;;42.29;37.93;101667.06;5008721;28;96714;-70
2021/06/27 06:31:33;;;;;;;7.97;4.45;;;37.20;56.20;;;41.96;39.33;101669.50;5004949;28;97531;-68
2021/06/27 06:34:04;;;;;;;8.23;4.72;;;37.00;56.70;;;41.30;40.53;101654.59;5004789;28;96970;-68
2021/06/27 06:36:33;;;;;;;9.65;4.78;;;36.70;57.40;;;40.67;41.79;101656.66;5007513;28;96776;-69
2021/06/27 06:39:06;;;;;;;6.65;4.32;;;36.20;58.00;;;39.60;43.48;101657.16;5003881;28;96768;-69
2021/06/27 06:41:35;;;;;;;7.72;4.18;;;35.60;58.90;;;38.38;45.51;101657.50;5010329;28;96755;-69
2021/06/27 06:44:05;;;;;;;8.70;3.55;;;34.90;60.00;;;37.23;47.98;101650.53;5007707;28;97901;-69
2021/06/27 06:46:34;;;;;;;6.78;3.22;;;34.00;60.90;;;36.65;48.62;101650.44;5008073;28;96763;-70
2021/06/27 06:49:05;;;;;;;9.80;4.10;;;33.40;61.70;;;35.95;49.10;101649.44;5003977;28;97310;-69
2021/06/27 06:51:34;;;;;;;9.07;4.30;;;32.80;62.00;;;35.46;49.63;101650.38;5008583;28;99076;-69
2021/06/27 06:54:06;;;;;;;12.32;4.57;;;32.20;62.70;;;35.36;49.46;101652.28;5006644;28;97749;-69
2021/06/27 06:56:35;;;;;;;18.50;3.85;;;31.80;63.00;;;35.43;48.80;101668.78;5008273;28;96858;-69
2021/06/27 06:59:04;;;;;;;8.93;3.78;;;31.50;63.30;;;36.08;47.39;101661.38;5004308;28;97007;-69
2021/06/27 07:01:33;;;;;;;12.73;4.00;;;31.60;63.30;;;36.15;46.98;101673.03;5005458;28;97930;-69
2021/06/27 07:04:05;;;;;;;5.80;2.97;;;31.60;63.00;;;36.17;46.57;101661.44;5007052;28;97080;-69
2021/06/27 07:06:33;;;;;;;6.65;3.75;;;31.60;62.90;;;36.71;45.78;101656.97;5030980;27;97110;-69
2021/06/27 07:09:03;;;;;;;4.07;2.88;;;31.70;62.90;;;37.53;43.99;101649.69;5002928;28;96899;-69
2021/06/27 07:11:33;;;;;;;7.15;3.88;;;32.10;62.30;;;38.43;42.02;101628.84;5006074;28;97722;-69
2021/06/27 07:14:05;;;;;;;6.20;3.47;;;32.70;61.60;;;40.01;39.91;101635.75;5002822;28;97386;-69
2021/06/27 07:16:34;;;;;;;7.40;3.33;;;33.50;60.40;;;40.77;38.99;101660.88;5005871;28;96829;-69
2021/06/27 07:19:05;;;;;;;9.25;4.10;;;34.30;59.60;;;40.40;40.11;101659.72;5002424;28;99466;-69
2021/06/27 07:21:33;;;;;;;9.13;5.13;;;34.60;59.50;;;39.38;42.02;101669.13;5004985;28;98283;-69
2021/06/27 07:24:07;;;;;;;13.55;3.92;;;34.30;59.70;;;37.67;45.06;101689.81;5006623;28;97123;-69
2021/06/27 07:26:37;;;;;;;7.72;2.97;;;33.70;60.30;;;36.63;46.79;101672.47;5006526;28;96890;-69
2021/06/27 07:29:05;;;;;;;8.30;3.78;;;33.00;61.60;;;36.65;46.48;101688.78;5006951;28;96925;-69
2021/06/27 07:31:34;;;;;;;8.63;3.90;;;32.50;62.00;;;35.96;47.67;101695.66;5006378;28;98060;-69
2021/06/27 07:34:06;;;;;;;5.53;3.20;;;32.10;62.40;;;35.14;49.42;101695.22;5001173;28;97771;-68
2021/06/27 07:36:35;;;;;;;9.40;5.38;;;31.60;63.00;;;34.31;50.49;101696.47;5004264;28;99242;-69
2021/06/27 07:39:05;;;;;;;9.27;4.72;;;31.10;63.70;;;33.62;51.60;101699.84;5004497;28;96890;-69
2021/06/27 07:41:35;;;;;;;10.32;4.43;;;30.60;64.10;;;32.97;52.67;101705.75;5003741;28;96820;-68
2021/06/27 07:44:09;;;;;;;6.75;2.53;;;30.10;64.60;;;32.40;53.38;101701.81;5002296;28;97364;-69
2021/06/27 07:46:41;;;;;;;21.92;4.45;;;29.60;65.20;;;31.98;53.81;101699.78;5000625;28;97581;-69
2021/06/27 07:49:09;;;;;;;3.80;2.30;;;29.20;65.50;;;31.59;54.28;101694.91;5011787;28;96971;-69
2021/06/27 07:51:38;;;;;;;6.25;3.13;;;28.80;65.90;;;31.44;54.09;101698.34;5010287;28;97964;-69
2021/06/27 07:54:07;;;;;;;5.47;3.08;;;28.40;66.00;;;31.07;54.62;101690.94;5008645;28;98088;-69
2021/06/27 07:56:37;;;;;;;14.68;3.53;;;28.20;66.40;;;30.98;54.30;101692.66;5007524;28;97296;-69
2021/06/27 07:59:08;;;;;;;4.28;3.00;;;27.90;66.50;;;30.99;53.84;101700.56;5006482;28;97048;-73
2021/06/27 08:01:37;;;;;;;14.98;6.30;;;27.70;66.50;;;30.85;53.74;101703.50;5011676;28;96825;-70
2021/06/27 08:04:06;;;;;;;7.85;2.72;;;27.60;66.50;;;30.74;53.80;101700.09;5007715;28;97613;-70
2021/06/27 08:06:34;;;;;;;9.55;3.67;;;27.50;66.40;;;30.71;53.61;101704.91;5008028;28;97463;-70
2021/06/27 08:09:05;;;;;;;6.85;2.70;;;27.40;66.40;;;30.89;52.98;101695.94;5030875;27;97724;-70
2021/06/27 08:11:35;;;;;;;3.60;2.55;;;27.30;66.30;;;31.29;51.69;101697.78;5004394;28;97224;-70
2021/06/27 08:14:08;;;;;;;10.68;3.90;;;27.40;66.30;;;31.81;50.53;101704.44;5002479;28;98333;-70
2021/06/27 08:16:37;;;;;;;5.40;3.17;;;27.50;66.00;;;32.30;49.36;101706.34;5009216;28;97269;-70
2021/06/27 08:19:06;;;;;;;6.65;2.38;;;27.70;65.60;;;33.08;47.45;101698.75;5005350;28;96743;-70
2021/06/27 08:21:35;;;;;;;5.40;2.80;;;27.90;65.30;;;34.07;45.71;101705.47;5006833;28;97805;-70
2021/06/27 08:24:06;;;;;;;8.52;2.92;;;28.40;65.00;;;34.50;45.22;101701.88;5002094;28;97076;-70
2021/06/27 08:26:36;;;;;;;5.95;2.92;;;28.70;64.10;;;34.56;45.49;101700.13;5001903;28;97577;-72
2021/06/27 08:29:05;;;;;;;6.72;3.85;;;29.10;63.90;;;34.91;44.50;101704.66;5004770;28;97237;-71
2021/06/27 08:31:34;;;;;;;12.18;3.65;;;29.30;63.60;;;35.16;44.41;101698.34;5006849;28;96762;-71
2021/06/27 08:34:05;;;;;;;6.45;3.22;;;29.50;63.40;;;35.61;43.63;101684.94;5001876;28;97268;-70
2021/06/27 08:36:33;;;;;;;3.15;1.85;;;29.70;63.20;;;35.93;43.59;101697.34;5001484;28;96736;-72
2021/06/27 08:39:04;;;;;;;3.90;2.63;;;30.00;63.10;;;36.35;42.83;101695.09;5006754;28;96831;-72
2021/06/27 08:41:33;;;;;;;8.27;3.40;;;30.30;63.00;;;36.70;42.58;101700.13;5006364;28;98086;-72
2021/06/27 08:44:07;;;;;;;6.60;4.10;;;30.60;62.80;;;37.01;42.29;101697.38;5041016;27;98619;-71
2021/06/27 08:46:41;;;;;;;4.28;1.95;;;30.80;62.60;;;38.89;38.99;101689.13;5006922;28;97995;-71
2021/06/27 08:49:13;;;;;;;5.25;2.70;;;31.30;63.20;;;40.26;36.76;101691.44;5008232;28;98438;-70
2021/06/27 08:51:42;;;;;;;7.55;2.58;;;31.90;62.00;;;41.11;36.16;101680.63;5008775;28;97192;-71
2021/06/27 08:54:12;;;;;;;10.82;2.47;;;32.50;61.60;;;41.76;35.47;101686.47;5004740;28;98373;-71
2021/06/27 08:56:41;;;;;;;3.50;1.92;;;33.00;61.30;;;42.43;34.93;101665.41;5005724;28;96862;-72
2021/06/27 08:59:11;;;;;;;4.20;2.42;;;33.50;61.00;;;42.94;35.02;101676.63;5004200;28;97006;-73
2021/06/27 09:01:40;;;;;;;3.97;2.85;;;34.00;60.80;;;43.06;34.76;101676.22;5005736;28;97883;-72
2021/06/27 09:04:08;;;;;;;4.35;2.70;;;34.20;60.80;;;43.40;35.56;101666.69;5005711;28;97894;-71
2021/06/27 09:06:40;;;;;;;5.35;1.90;;;34.50;60.90;;;43.83;34.81;101668.94;5006625;28;96840;-72
2021/06/27 09:09:12;;;;;;;3.10;2.25;;;34.80;60.90;;;44.77;34.24;101664.22;5005411;28;97646;-73
2021/06/27 09:11:58;;;;;;;3.58;2.35;;;35.10;61.10;;;45.44;33.60;101669.22;5003156;28;97324;-72
2021/06/27 09:14:34;;;;;;;7.68;3.35;;;35.40;61.20;;;46.01;33.66;101671.28;5001441;28;97670;-74
2021/06/27 09:17:13;;;;;;;2.85;1.52;;;35.80;61.30;;;46.06;33.98;101661.97;5006117;28;96999;-72
2021/06/27 09:20:09;;;;;;;3.38;2.10;;;36.10;61.30;;;46.16;33.93;101663.22;5009070;28;97419;-72
2021/06/27 09:22:41;;;;;;;6.32;2.72;;;36.40;61.50;;;45.95;34.78;101654.34;5004916;28;97928;-72
2021/06/27 09:25:21;;;;;;;7.93;4.70;;;36.60;61.80;;;43.19;39.53;101651.91;5007365;28;97734;-73
2021/06/27 09:28:10;;;;;;;4.75;2.63;;;36.40;61.70;;;44.77;36.89;101650.06;5004589;28;97195;-74
2021/06/27 09:30:47;;;;;;;5.78;3.20;;;36.20;62.20;;;45.38;35.90;101645.81;5003977;28;97021;-73
2021/06/27 09:33:21;;;;;;;3.08;2.00;;;36.20;62.60;;;45.25;36.34;101639.94;5007226;27;97040;-72
2021/06/27 09:35:55;;;;;;;4.00;2.17;;;36.30;62.70;;;45.28;36.49;101643.81;5005269;28;97176;-75
2021/06/27 09:38:41;;;;;;;5.65;2.95;;;36.30;63.00;;;45.24;36.78;101637.66;5038081;27;96859;-74
2021/06/27 09:41:21;;;;;;;4.75;2.47;;;36.30;63.10;;;44.53;37.90;101634.91;5024626;27;97167;-74
2021/06/27 09:43:55;;;;;;;8.40;3.50;;;36.30;62.80;;;44.85;37.23;101633.34;5002578;28;97919;-72
2021/06/27 09:46:36;;;;;;;2.75;2.08;;;36.20;63.20;;;44.91;37.28;101632.06;5003738;28;96967;-73
2021/06/27 09:49:11;;;;;;;7.78;2.90;;;36.30;63.30;;;44.56;37.93;101633.88;5000903;28;97200;-72
2021/06/27 09:51:49;;;;;;;7.28;3.28;;;36.30;63.50;;;44.07;39.02;101626.88;5036621;27;96791;-72
2021/06/27 09:54:20;;;;;;;3.00;2.40;;;36.30;63.70;;;43.63;40.29;101626.75;5001518;28;98099;-73
2021/06/27 09:56:50;;;;;;;4.45;3.97;;;36.20;63.80;;;43.14;40.70;101623.66;5002270;28;97480;-72
2021/06/27 09:59:21;;;;;;;12.25;3.28;;;36.20;63.90;;;42.70;42.49;101628.22;5000555;28;96812;-72
2021/06/27 10:01:58;;;;;;;2.78;1.70;;;36.10;64.10;;;42.42;42.80;101621.56;4997991;28;97053;-72
2021/06/27 10:04:31;;;;;;;4.57;2.15;;;36.00;64.20;;;41.77;43.69;101614.78;4999515;28;97939;-73
2021/06/27 10:07:05;;;;;;;;;;;35.90;64.40;;;41.32;44.86;101623.91;4998082;28;96892;-73
2021/06/27 10:09:37;;;;;;;2.42;1.83;;;35.80;63.70;;;40.77;45.71;101616.69;4999180;28;97251;-74
2021/06/27 10:12:09;;;;;;;3.95;2.30;;;35.60;64.30;;;40.41;46.20;101619.13;5002362;28;97021;-71
2021/06/27 10:14:56;;;;;;;;;;;35.40;64.70;;;40.14;47.21;101616.63;5007068;28;96684;-72
2021/06/27 10:17:29;;;;;;;5.18;1.92;;;35.30;64.40;;;40.01;47.46;101610.50;5007450;28;97703;-71
2021/06/27 10:19:58;;;;;;;10.32;2.78;;;35.30;64.90;;;39.93;47.80;101615.69;5004240;28;98016;-74
2021/06/27 10:22:27;;;;;;;3.05;1.65;;;35.30;65.10;;;39.75;47.69;101609.47;5003112;28;97369;-73
2021/06/27 10:24:57;;;;;;;2.78;2.15;;;35.30;64.80;;;39.59;48.32;101607.06;5003363;28;97916;-73
2021/06/27 10:27:28;;;;;;;4.28;3.13;;;35.30;64.80;;;39.42;48.67;101608.00;5002059;28;97910;-74